Berit — ZDHX2 — position and weather

sailwx.info

Track history (hours):
 
Tides and Currents Weather Stations Pressure Air Temp Water Temp Dewpoint Dewpoint Depression Visibility Wind Speed Wind Dir Waves Ship Positions

Berit

Last reported at 2014-Oct-01 23:33 UTC. Time now 2014-Oct-02 00:34 UTC.
Position N 52°35' E 001°44'.

Length 83 m; draft 4.9 m.

Type: Cargo ship. MMSI: 236386000.

Date/timePositionNaut miles runAvg speedWind from/ knotsBaromVisibWave heightAir tempDewpointWater temp
2014-Oct-01 23:33N 52°35' E 001°44'0 0.0
2014-Oct-01 22:33N 52°35' E 001°44'0 0.0
2014-Oct-01 21:33N 52°35' E 001°44'0 0.0
2014-Oct-01 20:33N 52°35' E 001°44'0 0.0
2014-Oct-01 19:33N 52°35' E 001°44'0 0.0
2014-Oct-01 18:33N 52°35' E 001°44'0 0.0
2014-Oct-01 17:33N 52°35' E 001°44'0 0.0
2014-Oct-01 16:33N 52°35' E 001°44'0 0.0
2014-Oct-01 15:33N 52°35' E 001°44'0 0.0
2014-Oct-01 14:33N 52°35' E 001°44'0 0.0
2014-Oct-01 13:33N 52°35' E 001°44'0 0.0
2014-Oct-01 12:33N 52°35' E 001°44'0 0.0
2014-Oct-01 11:33N 52°35' E 001°44'0 0.0
2014-Oct-01 10:33N 52°35' E 001°44'0 0.0
2014-Oct-01 09:33N 52°35' E 001°44'0 0.0
2014-Oct-01 08:33N 52°35' E 001°44'0 0.0
2014-Oct-01 07:33N 52°35' E 001°44'0 0.0
2014-Oct-01 06:33N 52°35' E 001°44'0 0.0
2014-Oct-01 05:33N 52°35' E 001°44'0 0.0
2014-Oct-01 04:33N 52°35' E 001°44'0 0.0
2014-Oct-01 03:33N 52°35' E 001°44'0 0.1
2014-Oct-01 02:33N 52°35' E 001°44'3 2.7
2014-Oct-01 01:33N 52°34' E 001°48'5 5.2
2014-Oct-01 00:33N 52°34' E 001°56'6 6.3
2014-Sep-30 23:33N 52°36' E 002°06'117 7.8
2014-Sep-30 08:28N 53°33' E 004°57'11 8.6
2014-Sep-30 07:12N 53°37' E 005°14'6 9.5
2014-Sep-30 06:33N 53°39' E 005°24'1010.3
2014-Sep-30 05:33N 53°42' E 005°41'66 9.4
2014-Sep-29 22:33N 54°00' E 007°28'9 8.7
2014-Sep-29 21:33N 54°02' E 007°42'10 9.9
2014-Sep-29 20:33N 54°01' E 007°59'1111.0
2014-Sep-29 19:33N 54°00' E 008°18'1212.4
2014-Sep-29 18:33N 53°57' E 008°38'1111.0
2014-Sep-29 17:33N 53°51' E 008°53'10 9.6
2014-Sep-29 16:33N 53°53' E 009°09'8 7.6
2014-Sep-29 15:32N 53°50' E 009°21'7 7.4
2014-Sep-29 14:32N 53°44' E 009°27'7 7.2
2014-Sep-29 13:33N 53°37' E 009°33'10 9.5
2014-Sep-29 12:33N 53°33' E 009°47'7 7.0
2014-Sep-29 11:33N 53°30' E 009°58'0 0.0
2014-Sep-29 10:32N 53°30' E 009°58'0 0.0
2014-Sep-29 09:29N 53°30' E 009°58'0 0.0
2014-Sep-29 08:29N 53°30' E 009°58'0 0.0
2014-Sep-29 07:32N 53°30' E 009°58'0 0.0
2014-Sep-29 06:29N 53°30' E 009°58'0 0.0
2014-Sep-29 05:29N 53°30' E 009°58'0 0.0
2014-Sep-29 04:29N 53°30' E 009°58'0 0.0
2014-Sep-29 03:29N 53°30' E 009°58'0 0.0
2014-Sep-29 02:29N 53°30' E 009°58'0 0.0
2014-Sep-29 01:32N 53°30' E 009°58'0 0.0
2014-Sep-29 00:32N 53°30' E 009°58'0 0.0
2014-Sep-28 23:32N 53°30' E 009°58'0 0.0
2014-Sep-28 22:32N 53°30' E 009°58'0 0.0
2014-Sep-28 21:32N 53°30' E 009°58'0 0.0
2014-Sep-28 20:29N 53°30' E 009°58'0 0.0
2014-Sep-28 19:32N 53°30' E 009°58'0 0.0
2014-Sep-28 18:29N 53°30' E 009°58'0 0.0
2014-Sep-28 17:32N 53°30' E 009°58'0 0.0
2014-Sep-28 16:32N 53°30' E 009°58'0 0.0
2014-Sep-28 15:29N 53°30' E 009°58'0 0.0
2014-Sep-28 14:29N 53°30' E 009°58'0 0.0
2014-Sep-28 13:29N 53°30' E 009°58'0 0.0
2014-Sep-28 12:29N 53°30' E 009°58'0 0.0
2014-Sep-28 11:32N 53°30' E 009°58'0 0.0
2014-Sep-28 10:32N 53°30' E 009°58'0 0.0
2014-Sep-28 09:32N 53°30' E 009°58'0 0.0
2014-Sep-28 08:32N 53°30' E 009°58'0 0.0
2014-Sep-28 07:29N 53°30' E 009°58'0 0.0
2014-Sep-28 06:32N 53°30' E 009°58'5 5.1
2014-Sep-28 05:33N 53°33' E 009°50'9 9.2
2014-Sep-28 04:33N 53°36' E 009°36'9 9.4
2014-Sep-28 03:33N 53°44' E 009°27'9 9.1
2014-Sep-28 02:33N 53°51' E 009°19'9 8.6
2014-Sep-28 01:33N 53°52' E 009°04'9 9.1
2014-Sep-28 00:33N 53°50' E 008°49'9 8.5
2014-Sep-27 23:33N 53°56' E 008°39'1010.2
2014-Sep-27 22:33N 53°59' E 008°22'10 9.9
2014-Sep-27 21:33N 53°58' E 008°05'5 4.9
2014-Sep-27 20:33N 53°53' E 008°04'10 9.6
2014-Sep-27 19:33N 53°45' E 008°12'1211.8
2014-Sep-27 18:33N 53°38' E 008°28'9 9.0
2014-Sep-27 17:33N 53°29' E 008°30'1211.7
2014-Sep-27 16:33N 53°17' E 008°29'10 9.6
2014-Sep-27 15:33N 53°09' E 008°38'5 5.2
2014-Sep-27 14:33N 53°06' E 008°45'0 0.0
2014-Sep-27 13:33N 53°06' E 008°45'0 0.0
2014-Sep-27 12:33N 53°06' E 008°45'0 0.0
2014-Sep-27 11:33N 53°06' E 008°45'0 0.0
2014-Sep-27 10:33N 53°06' E 008°45'0 0.0
2014-Sep-27 09:33N 53°06' E 008°45'0 0.0
2014-Sep-27 08:33N 53°06' E 008°45'0 0.0
2014-Sep-27 07:33N 53°06' E 008°45'0 0.0
2014-Sep-27 06:33N 53°06' E 008°45'0 0.0
2014-Sep-27 05:33N 53°06' E 008°45'0 0.0
2014-Sep-27 04:33N 53°06' E 008°45'0 0.0
2014-Sep-27 03:33N 53°06' E 008°45'0 0.0
2014-Sep-27 02:33N 53°06' E 008°45'0 0.0
2014-Sep-27 01:33N 53°06' E 008°45'0 0.0
2014-Sep-27 00:33N 53°06' E 008°45'0 0.0
2014-Sep-26 23:33N 53°06' E 008°45'0 0.0
2014-Sep-26 22:33N 53°06' E 008°45'0 0.0
2014-Sep-26 21:33N 53°06' E 008°45'0 0.0
2014-Sep-26 20:33N 53°06' E 008°45'0 0.0
2014-Sep-26 19:33N 53°06' E 008°45'0 0.0
2014-Sep-26 18:33N 53°06' E 008°45'0 0.0
2014-Sep-26 17:33N 53°06' E 008°45'0 0.0
2014-Sep-26 16:33N 53°06' E 008°45'0 0.0
2014-Sep-26 15:33N 53°06' E 008°45'0 0.0
2014-Sep-26 14:33N 53°06' E 008°45'0 0.0
2014-Sep-26 13:33N 53°06' E 008°45'0 0.0
2014-Sep-26 12:33N 53°06' E 008°45'0 0.0
2014-Sep-26 11:33N 53°06' E 008°45'3 2.9
2014-Sep-26 10:33N 53°07' E 008°41'9 9.2
2014-Sep-26 09:33N 53°14' E 008°29'9 9.0
2014-Sep-26 08:32N 53°23' E 008°30'8 8.0
2014-Sep-26 07:33N 53°31' E 008°31'6 6.4
2014-Sep-26 06:33N 53°37' E 008°29'8 7.7
2014-Sep-26 05:33N 53°42' E 008°19'8 7.8
2014-Sep-26 04:33N 53°47' E 008°09'25 8.2
2014-Sep-26 01:34N 54°01' E 007°35'10 9.6
2014-Sep-26 00:34N 54°09' E 007°27'9 9.0
2014-Sep-25 23:33N 54°18' E 007°28'9 9.2
2014-Sep-25 22:33N 54°27' E 007°31'9 9.3
2014-Sep-25 21:34N 54°37' E 007°33'19 9.6
2014-Sep-25 19:33N 54°56' E 007°38'9 9.2
2014-Sep-25 18:33N 55°04' E 007°43'9 8.9
2014-Sep-25 17:33N 55°11' E 007°53'9 8.8
2014-Sep-25 16:33N 55°18' E 008°02'9 8.7
2014-Sep-25 15:33N 55°25' E 008°12'8 8.2
2014-Sep-25 14:33N 55°28' E 008°25'1 0.4
2014-Sep-25 12:21N 55°27' E 008°27'0 0.0
2014-Sep-25 11:30N 55°27' E 008°27'0 0.0
2014-Sep-25 10:24N 55°27' E 008°27'0 0.0
2014-Sep-25 09:21N 55°27' E 008°27'0 0.0
2014-Sep-25 08:24N 55°27' E 008°27'0 0.0
2014-Sep-25 07:30N 55°27' E 008°27'0 0.0
2014-Sep-25 06:30N 55°27' E 008°27'0 0.0
2014-Sep-25 05:30N 55°27' E 008°27'0 0.0
2014-Sep-25 04:33N 55°27' E 008°27'0 0.0
2014-Sep-25 03:27N 55°27' E 008°27'0 0.0
2014-Sep-25 02:33N 55°27' E 008°27'0 0.0
2014-Sep-25 01:30N 55°27' E 008°27'0 0.0
2014-Sep-25 00:33N 55°27' E 008°27'0 0.0
2014-Sep-24 23:33N 55°27' E 008°27'0 0.0
2014-Sep-24 22:33N 55°27' E 008°27'0 0.0
2014-Sep-24 21:33N 55°27' E 008°27'0 0.0
2014-Sep-24 20:21N 55°27' E 008°27'0 0.0
2014-Sep-24 19:21N 55°27' E 008°27'0 0.0
2014-Sep-24 18:27N 55°27' E 008°27'0 0.0
2014-Sep-24 17:27N 55°27' E 008°27'0 0.0
2014-Sep-24 16:33N 55°27' E 008°27'0 0.0
2014-Sep-24 15:15N 55°27' E 008°27'0 0.0
2014-Sep-24 14:15N 55°27' E 008°27'0 0.0
2014-Sep-24 13:27N 55°27' E 008°27'0 0.0
2014-Sep-24 12:33N 55°27' E 008°27'0 0.0
2014-Sep-24 11:33N 55°27' E 008°27'0 0.0
2014-Sep-24 10:33N 55°27' E 008°27'0 0.0
2014-Sep-24 09:33N 55°27' E 008°27'0 0.3
2014-Sep-24 08:29N 55°28' E 008°27'0 0.0
2014-Sep-24 07:29N 55°28' E 008°27'0 0.0
2014-Sep-24 06:32N 55°28' E 008°27'0 0.0
2014-Sep-24 05:32N 55°28' E 008°27'0 0.0
2014-Sep-24 04:32N 55°28' E 008°27'0 0.0
2014-Sep-24 03:29N 55°28' E 008°27'0 0.0
2014-Sep-24 02:32N 55°28' E 008°27'0 0.0
2014-Sep-24 01:32N 55°28' E 008°27'0 0.0
2014-Sep-24 00:32N 55°28' E 008°27'0 0.0
2014-Sep-23 23:26N 55°28' E 008°27'0 0.0
2014-Sep-23 22:32N 55°28' E 008°27'0 0.0
2014-Sep-23 21:32N 55°28' E 008°27'0 0.0
2014-Sep-23 20:29N 55°28' E 008°27'0 0.0
2014-Sep-23 19:32N 55°28' E 008°27'0 0.0
2014-Sep-23 18:32N 55°28' E 008°27'0 0.0
2014-Sep-23 17:29N 55°28' E 008°27'0 0.0
2014-Sep-23 16:32N 55°28' E 008°27'0 0.0
2014-Sep-23 15:26N 55°28' E 008°27'0 0.0
2014-Sep-23 14:29N 55°28' E 008°27'0 0.0
2014-Sep-23 13:32N 55°28' E 008°27'0 0.0
2014-Sep-23 12:20N 55°28' E 008°27'0 0.0
2014-Sep-23 11:32N 55°28' E 008°27'0 0.0
2014-Sep-23 10:29N 55°28' E 008°27'0 0.0
2014-Sep-23 09:32N 55°28' E 008°27'0 0.0
2014-Sep-23 08:32N 55°28' E 008°27'1 0.9
2014-Sep-23 07:33N 55°28' E 008°25'8 7.7
2014-Sep-23 06:34N 55°25' E 008°13'9 9.4
2014-Sep-23 05:33N 55°20' E 007°58'7 7.3
2014-Sep-23 04:33N 55°17' E 007°47'7 7.1
2014-Sep-23 03:33N 55°12' E 007°37'9 8.7
2014-Sep-23 02:34N 55°06' E 007°26'9 9.3
2014-Sep-23 01:33N 54°60' E 007°14'9 9.3
2014-Sep-23 00:33N 54°55' E 007°01'66 8.9
2014-Sep-22 17:13N 54°19' E 005°26'6 8.6
2014-Sep-22 16:29N 54°15' E 005°17'8 8.3
2014-Sep-22 15:33N 54°11' E 005°07'8 7.8
2014-Sep-22 14:30N 54°05' E 004°56'  
Track history (hours):
 
Tides and Currents Weather Stations Pressure Air Temp Water Temp Dewpoint Dewpoint Depression Visibility Wind Speed Wind Dir Waves Ship Positions

Berit

Last reported at 2014-Oct-01 23:33 UTC. Time now 2014-Oct-02 00:34 UTC.
Position N 52°35' E 001°44'.

Length 83 m; draft 4.9 m.

Type: Cargo ship. MMSI: 236386000.

Date/timePositionNaut miles runAvg speedWind from/ knotsBaromVisibWave heightAir tempDewpointWater temp
2014-Oct-01 23:33N 52°35' E 001°44'0 0.0
2014-Oct-01 22:33N 52°35' E 001°44'0 0.0
2014-Oct-01 21:33N 52°35' E 001°44'0 0.0
2014-Oct-01 20:33N 52°35' E 001°44'0 0.0
2014-Oct-01 19:33N 52°35' E 001°44'0 0.0
2014-Oct-01 18:33N 52°35' E 001°44'0 0.0
2014-Oct-01 17:33N 52°35' E 001°44'0 0.0
2014-Oct-01 16:33N 52°35' E 001°44'0 0.0
2014-Oct-01 15:33N 52°35' E 001°44'0 0.0
2014-Oct-01 14:33N 52°35' E 001°44'0 0.0
2014-Oct-01 13:33N 52°35' E 001°44'0 0.0
2014-Oct-01 12:33N 52°35' E 001°44'0 0.0
2014-Oct-01 11:33N 52°35' E 001°44'0 0.0
2014-Oct-01 10:33N 52°35' E 001°44'0 0.0
2014-Oct-01 09:33N 52°35' E 001°44'0 0.0
2014-Oct-01 08:33N 52°35' E 001°44'0 0.0
2014-Oct-01 07:33N 52°35' E 001°44'0 0.0
2014-Oct-01 06:33N 52°35' E 001°44'0 0.0
2014-Oct-01 05:33N 52°35' E 001°44'0 0.0
2014-Oct-01 04:33N 52°35' E 001°44'0 0.0
2014-Oct-01 03:33N 52°35' E 001°44'0 0.1
2014-Oct-01 02:33N 52°35' E 001°44'3 2.7
2014-Oct-01 01:33N 52°34' E 001°48'5 5.2
2014-Oct-01 00:33N 52°34' E 001°56'6 6.3
2014-Sep-30 23:33N 52°36' E 002°06'117 7.8
2014-Sep-30 08:28N 53°33' E 004°57'11 8.6
2014-Sep-30 07:12N 53°37' E 005°14'6 9.5
2014-Sep-30 06:33N 53°39' E 005°24'1010.3
2014-Sep-30 05:33N 53°42' E 005°41'66 9.4
2014-Sep-29 22:33N 54°00' E 007°28'9 8.7
2014-Sep-29 21:33N 54°02' E 007°42'10 9.9
2014-Sep-29 20:33N 54°01' E 007°59'1111.0
2014-Sep-29 19:33N 54°00' E 008°18'1212.4
2014-Sep-29 18:33N 53°57' E 008°38'1111.0
2014-Sep-29 17:33N 53°51' E 008°53'10 9.6
2014-Sep-29 16:33N 53°53' E 009°09'8 7.6
2014-Sep-29 15:32N 53°50' E 009°21'7 7.4
2014-Sep-29 14:32N 53°44' E 009°27'7 7.2
2014-Sep-29 13:33N 53°37' E 009°33'10 9.5
2014-Sep-29 12:33N 53°33' E 009°47'7 7.0
2014-Sep-29 11:33N 53°30' E 009°58'0 0.0
2014-Sep-29 10:32N 53°30' E 009°58'0 0.0
2014-Sep-29 09:29N 53°30' E 009°58'0 0.0
2014-Sep-29 08:29N 53°30' E 009°58'0 0.0
2014-Sep-29 07:32N 53°30' E 009°58'0 0.0
2014-Sep-29 06:29N 53°30' E 009°58'0 0.0
2014-Sep-29 05:29N 53°30' E 009°58'0 0.0
2014-Sep-29 04:29N 53°30' E 009°58'0 0.0
2014-Sep-29 03:29N 53°30' E 009°58'0 0.0
2014-Sep-29 02:29N 53°30' E 009°58'0 0.0
2014-Sep-29 01:32N 53°30' E 009°58'0 0.0
2014-Sep-29 00:32N 53°30' E 009°58'0 0.0
2014-Sep-28 23:32N 53°30' E 009°58'0 0.0
2014-Sep-28 22:32N 53°30' E 009°58'0 0.0
2014-Sep-28 21:32N 53°30' E 009°58'0 0.0
2014-Sep-28 20:29N 53°30' E 009°58'0 0.0
2014-Sep-28 19:32N 53°30' E 009°58'0 0.0
2014-Sep-28 18:29N 53°30' E 009°58'0 0.0
2014-Sep-28 17:32N 53°30' E 009°58'0 0.0
2014-Sep-28 16:32N 53°30' E 009°58'0 0.0
2014-Sep-28 15:29N 53°30' E 009°58'0 0.0
2014-Sep-28 14:29N 53°30' E 009°58'0 0.0
2014-Sep-28 13:29N 53°30' E 009°58'0 0.0
2014-Sep-28 12:29N 53°30' E 009°58'0 0.0
2014-Sep-28 11:32N 53°30' E 009°58'0 0.0
2014-Sep-28 10:32N 53°30' E 009°58'0 0.0
2014-Sep-28 09:32N 53°30' E 009°58'0 0.0
2014-Sep-28 08:32N 53°30' E 009°58'0 0.0
2014-Sep-28 07:29N 53°30' E 009°58'0 0.0
2014-Sep-28 06:32N 53°30' E 009°58'5 5.1
2014-Sep-28 05:33N 53°33' E 009°50'9 9.2
2014-Sep-28 04:33N 53°36' E 009°36'9 9.4
2014-Sep-28 03:33N 53°44' E 009°27'9 9.1
2014-Sep-28 02:33N 53°51' E 009°19'9 8.6
2014-Sep-28 01:33N 53°52' E 009°04'9 9.1
2014-Sep-28 00:33N 53°50' E 008°49'9 8.5
2014-Sep-27 23:33N 53°56' E 008°39'1010.2
2014-Sep-27 22:33N 53°59' E 008°22'10 9.9
2014-Sep-27 21:33N 53°58' E 008°05'5 4.9
2014-Sep-27 20:33N 53°53' E 008°04'10 9.6
2014-Sep-27 19:33N 53°45' E 008°12'1211.8
2014-Sep-27 18:33N 53°38' E 008°28'9 9.0
2014-Sep-27 17:33N 53°29' E 008°30'1211.7
2014-Sep-27 16:33N 53°17' E 008°29'10 9.6
2014-Sep-27 15:33N 53°09' E 008°38'5 5.2
2014-Sep-27 14:33N 53°06' E 008°45'0 0.0
2014-Sep-27 13:33N 53°06' E 008°45'0 0.0
2014-Sep-27 12:33N 53°06' E 008°45'0 0.0
2014-Sep-27 11:33N 53°06' E 008°45'0 0.0
2014-Sep-27 10:33N 53°06' E 008°45'0 0.0
2014-Sep-27 09:33N 53°06' E 008°45'0 0.0
2014-Sep-27 08:33N 53°06' E 008°45'0 0.0
2014-Sep-27 07:33N 53°06' E 008°45'0 0.0
2014-Sep-27 06:33N 53°06' E 008°45'0 0.0
2014-Sep-27 05:33N 53°06' E 008°45'0 0.0
2014-Sep-27 04:33N 53°06' E 008°45'0 0.0
2014-Sep-27 03:33N 53°06' E 008°45'0 0.0
2014-Sep-27 02:33N 53°06' E 008°45'0 0.0
2014-Sep-27 01:33N 53°06' E 008°45'0 0.0
2014-Sep-27 00:33N 53°06' E 008°45'0 0.0
2014-Sep-26 23:33N 53°06' E 008°45'0 0.0
2014-Sep-26 22:33N 53°06' E 008°45'0 0.0
2014-Sep-26 21:33N 53°06' E 008°45'0 0.0
2014-Sep-26 20:33N 53°06' E 008°45'0 0.0
2014-Sep-26 19:33N 53°06' E 008°45'0 0.0
2014-Sep-26 18:33N 53°06' E 008°45'0 0.0
2014-Sep-26 17:33N 53°06' E 008°45'0 0.0
2014-Sep-26 16:33N 53°06' E 008°45'0 0.0
2014-Sep-26 15:33N 53°06' E 008°45'0 0.0
2014-Sep-26 14:33N 53°06' E 008°45'0 0.0
2014-Sep-26 13:33N 53°06' E 008°45'0 0.0
2014-Sep-26 12:33N 53°06' E 008°45'0 0.0
2014-Sep-26 11:33N 53°06' E 008°45'3 2.9
2014-Sep-26 10:33N 53°07' E 008°41'9 9.2
2014-Sep-26 09:33N 53°14' E 008°29'9 9.0
2014-Sep-26 08:32N 53°23' E 008°30'8 8.0
2014-Sep-26 07:33N 53°31' E 008°31'6 6.4
2014-Sep-26 06:33N 53°37' E 008°29'8 7.7
2014-Sep-26 05:33N 53°42' E 008°19'8 7.8
2014-Sep-26 04:33N 53°47' E 008°09'25 8.2
2014-Sep-26 01:34N 54°01' E 007°35'10 9.6
2014-Sep-26 00:34N 54°09' E 007°27'9 9.0
2014-Sep-25 23:33N 54°18' E 007°28'9 9.2
2014-Sep-25 22:33N 54°27' E 007°31'9 9.3
2014-Sep-25 21:34N 54°37' E 007°33'19 9.6
2014-Sep-25 19:33N 54°56' E 007°38'9 9.2
2014-Sep-25 18:33N 55°04' E 007°43'9 8.9
2014-Sep-25 17:33N 55°11' E 007°53'9 8.8
2014-Sep-25 16:33N 55°18' E 008°02'9 8.7
2014-Sep-25 15:33N 55°25' E 008°12'8 8.2
2014-Sep-25 14:33N 55°28' E 008°25'1 0.4
2014-Sep-25 12:21N 55°27' E 008°27'0 0.0
2014-Sep-25 11:30N 55°27' E 008°27'0 0.0
2014-Sep-25 10:24N 55°27' E 008°27'0 0.0
2014-Sep-25 09:21N 55°27' E 008°27'0 0.0
2014-Sep-25 08:24N 55°27' E 008°27'0 0.0
2014-Sep-25 07:30N 55°27' E 008°27'0 0.0
2014-Sep-25 06:30N 55°27' E 008°27'0 0.0
2014-Sep-25 05:30N 55°27' E 008°27'0 0.0
2014-Sep-25 04:33N 55°27' E 008°27'0 0.0
2014-Sep-25 03:27N 55°27' E 008°27'0 0.0
2014-Sep-25 02:33N 55°27' E 008°27'0 0.0
2014-Sep-25 01:30N 55°27' E 008°27'0 0.0
2014-Sep-25 00:33N 55°27' E 008°27'0 0.0
2014-Sep-24 23:33N 55°27' E 008°27'0 0.0
2014-Sep-24 22:33N 55°27' E 008°27'0 0.0
2014-Sep-24 21:33N 55°27' E 008°27'0 0.0
2014-Sep-24 20:21N 55°27' E 008°27'0 0.0
2014-Sep-24 19:21N 55°27' E 008°27'0 0.0
2014-Sep-24 18:27N 55°27' E 008°27'0 0.0
2014-Sep-24 17:27N 55°27' E 008°27'0 0.0
2014-Sep-24 16:33N 55°27' E 008°27'0 0.0
2014-Sep-24 15:15N 55°27' E 008°27'0 0.0
2014-Sep-24 14:15N 55°27' E 008°27'0 0.0
2014-Sep-24 13:27N 55°27' E 008°27'0 0.0
2014-Sep-24 12:33N 55°27' E 008°27'0 0.0
2014-Sep-24 11:33N 55°27' E 008°27'0 0.0
2014-Sep-24 10:33N 55°27' E 008°27'0 0.0
2014-Sep-24 09:33N 55°27' E 008°27'0 0.3
2014-Sep-24 08:29N 55°28' E 008°27'0 0.0
2014-Sep-24 07:29N 55°28' E 008°27'0 0.0
2014-Sep-24 06:32N 55°28' E 008°27'0 0.0
2014-Sep-24 05:32N 55°28' E 008°27'0 0.0
2014-Sep-24 04:32N 55°28' E 008°27'0 0.0
2014-Sep-24 03:29N 55°28' E 008°27'0 0.0
2014-Sep-24 02:32N 55°28' E 008°27'0 0.0
2014-Sep-24 01:32N 55°28' E 008°27'0 0.0
2014-Sep-24 00:32N 55°28' E 008°27'0 0.0
2014-Sep-23 23:26N 55°28' E 008°27'0 0.0
2014-Sep-23 22:32N 55°28' E 008°27'0 0.0
2014-Sep-23 21:32N 55°28' E 008°27'0 0.0
2014-Sep-23 20:29N 55°28' E 008°27'0 0.0
2014-Sep-23 19:32N 55°28' E 008°27'0 0.0
2014-Sep-23 18:32N 55°28' E 008°27'0 0.0
2014-Sep-23 17:29N 55°28' E 008°27'0 0.0
2014-Sep-23 16:32N 55°28' E 008°27'0 0.0
2014-Sep-23 15:26N 55°28' E 008°27'0 0.0
2014-Sep-23 14:29N 55°28' E 008°27'0 0.0
2014-Sep-23 13:32N 55°28' E 008°27'0 0.0
2014-Sep-23 12:20N 55°28' E 008°27'0 0.0
2014-Sep-23 11:32N 55°28' E 008°27'0 0.0
2014-Sep-23 10:29N 55°28' E 008°27'0 0.0
2014-Sep-23 09:32N 55°28' E 008°27'0 0.0
2014-Sep-23 08:32N 55°28' E 008°27'1 0.9
2014-Sep-23 07:33N 55°28' E 008°25'8 7.7
2014-Sep-23 06:34N 55°25' E 008°13'9 9.4
2014-Sep-23 05:33N 55°20' E 007°58'7 7.3
2014-Sep-23 04:33N 55°17' E 007°47'7 7.1
2014-Sep-23 03:33N 55°12' E 007°37'9 8.7
2014-Sep-23 02:34N 55°06' E 007°26'9 9.3
2014-Sep-23 01:33N 54°60' E 007°14'9 9.3
2014-Sep-23 00:33N 54°55' E 007°01'66 8.9
2014-Sep-22 17:13N 54°19' E 005°26'6 8.6
2014-Sep-22 16:29N 54°15' E 005°17'8 8.3
2014-Sep-22 15:33N 54°11' E 005°07'8 7.8
2014-Sep-22 14:30N 54°05' E 004°56'  

Dump ship's entire track history